sensor_id;sensor_type;location;lat;lon;timestamp;P1;durP1;ratioP1;P2;durP2;ratioP2
55987;SDS011;67216;50.930;4.514;2023-02-11T00:02:21;24.15;;;10.55;;
55987;SDS011;67216;50.930;4.514;2023-02-11T00:04:47;29.58;;;11.00;;
55987;SDS011;67216;50.930;4.514;2023-02-11T00:07:13;20.55;;;10.15;;
55987;SDS011;67216;50.930;4.514;2023-02-11T00:09:40;28.77;;;11.07;;
55987;SDS011;67216;50.930;4.514;2023-02-11T00:12:08;24.48;;;10.73;;
55987;SDS011;67216;50.930;4.514;2023-02-11T00:14:34;29.30;;;11.35;;
55987;SDS011;67216;50.930;4.514;2023-02-11T00:17:00;27.25;;;10.77;;
55987;SDS011;67216;50.930;4.514;2023-02-11T00:19:28;21.95;;;10.38;;
55987;SDS011;67216;50.930;4.514;2023-02-11T00:21:54;24.58;;;10.63;;
55987;SDS011;67216;50.930;4.514;2023-02-11T00:24:20;29.95;;;11.55;;
55987;SDS011;67216;50.930;4.514;2023-02-11T00:26:46;26.83;;;12.00;;
55987;SDS011;67216;50.930;4.514;2023-02-11T00:29:12;25.92;;;11.40;;
55987;SDS011;67216;50.930;4.514;2023-02-11T00:31:40;22.40;;;11.00;;
55987;SDS011;67216;50.930;4.514;2023-02-11T00:34:06;32.15;;;12.07;;
55987;SDS011;67216;50.930;4.514;2023-02-11T00:36:32;28.40;;;10.85;;
55987;SDS011;67216;50.930;4.514;2023-02-11T00:38:58;36.90;;;12.18;;
55987;SDS011;67216;50.930;4.514;2023-02-11T00:41:26;28.00;;;12.38;;
55987;SDS011;67216;50.930;4.514;2023-02-11T00:43:52;27.08;;;11.25;;
55987;SDS011;67216;50.930;4.514;2023-02-11T00:46:24;25.07;;;11.40;;
55987;SDS011;67216;50.930;4.514;2023-02-11T00:48:52;20.85;;;11.18;;
55987;SDS011;67216;50.930;4.514;2023-02-11T00:51:21;24.90;;;11.48;;
55987;SDS011;67216;50.930;4.514;2023-02-11T00:53:48;29.23;;;12.02;;
55987;SDS011;67216;50.930;4.514;2023-02-11T00:56:13;25.58;;;11.60;;
55987;SDS011;67216;50.930;4.514;2023-02-11T00:58:42;31.33;;;12.43;;
55987;SDS011;67216;50.930;4.514;2023-02-11T01:01:10;23.58;;;10.93;;
55987;SDS011;67216;50.930;4.514;2023-02-11T01:03:37;25.70;;;11.52;;
55987;SDS011;67216;50.930;4.514;2023-02-11T01:06:03;29.23;;;11.43;;
55987;SDS011;67216;50.930;4.514;2023-02-11T01:11:02;27.45;;;10.65;;
55987;SDS011;67216;50.930;4.514;2023-02-11T01:13:32;28.77;;;10.98;;
55987;SDS011;67216;50.930;4.514;2023-02-11T01:15:59;26.90;;;11.20;;
55987;SDS011;67216;50.930;4.514;2023-02-11T01:18:25;28.27;;;11.05;;
55987;SDS011;67216;50.930;4.514;2023-02-11T01:20:51;29.88;;;11.55;;
55987;SDS011;67216;50.930;4.514;2023-02-11T01:23:17;26.63;;;11.23;;
55987;SDS011;67216;50.930;4.514;2023-02-11T01:25:43;27.15;;;10.50;;
55987;SDS011;67216;50.930;4.514;2023-02-11T01:28:14;24.35;;;10.27;;
55987;SDS011;67216;50.930;4.514;2023-02-11T01:30:44;26.52;;;10.38;;
55987;SDS011;67216;50.930;4.514;2023-02-11T01:33:10;27.92;;;10.45;;
55987;SDS011;67216;50.930;4.514;2023-02-11T01:35:37;27.75;;;12.02;;
55987;SDS011;67216;50.930;4.514;2023-02-11T01:38:03;26.30;;;11.63;;
55987;SDS011;67216;50.930;4.514;2023-02-11T01:40:29;25.58;;;10.73;;
55987;SDS011;67216;50.930;4.514;2023-02-11T01:42:54;28.63;;;12.10;;
55987;SDS011;67216;50.930;4.514;2023-02-11T01:48:12;21.98;;;10.80;;
55987;SDS011;67216;50.930;4.514;2023-02-11T01:50:49;24.07;;;11.63;;
55987;SDS011;67216;50.930;4.514;2023-02-11T01:53:26;30.33;;;12.68;;
55987;SDS011;67216;50.930;4.514;2023-02-11T01:56:11;29.25;;;11.45;;
55987;SDS011;67216;50.930;4.514;2023-02-11T01:58:57;32.33;;;11.63;;
55987;SDS011;67216;50.930;4.514;2023-02-11T02:01:29;28.45;;;11.60;;
55987;SDS011;67216;50.930;4.514;2023-02-11T02:04:00;28.75;;;11.38;;
55987;SDS011;67216;50.930;4.514;2023-02-11T02:07:28;25.63;;;10.32;;
55987;SDS011;67216;50.930;4.514;2023-02-11T02:09:26;25.17;;;10.38;;
55987;SDS011;67216;50.930;4.514;2023-02-11T02:12:00;35.83;;;11.45;;
55987;SDS011;67216;50.930;4.514;2023-02-11T02:14:26;28.40;;;10.43;;
55987;SDS011;67216;50.930;4.514;2023-02-11T02:16:52;26.60;;;12.02;;
55987;SDS011;67216;50.930;4.514;2023-02-11T02:24:33;27.83;;;10.57;;
55987;SDS011;67216;50.930;4.514;2023-02-11T02:33:21;26.77;;;11.00;;
55987;SDS011;67216;50.930;4.514;2023-02-11T02:38:33;28.48;;;10.77;;
55987;SDS011;67216;50.930;4.514;2023-02-11T02:41:22;23.67;;;10.20;;
55987;SDS011;67216;50.930;4.514;2023-02-11T02:43:54;33.38;;;11.10;;
55987;SDS011;67216;50.930;4.514;2023-02-11T02:46:21;25.33;;;11.48;;
55987;SDS011;67216;50.930;4.514;2023-02-11T02:48:52;22.63;;;10.32;;
55987;SDS011;67216;50.930;4.514;2023-02-11T02:51:24;25.02;;;10.40;;
55987;SDS011;67216;50.930;4.514;2023-02-11T02:56:47;23.88;;;10.73;;
55987;SDS011;67216;50.930;4.514;2023-02-11T03:02:23;25.88;;;10.45;;
55987;SDS011;67216;50.930;4.514;2023-02-11T03:12:25;20.42;;;9.40;;
55987;SDS011;67216;50.930;4.514;2023-02-11T03:14:53;22.52;;;9.65;;
55987;SDS011;67216;50.930;4.514;2023-02-11T03:17:19;21.08;;;10.05;;
55987;SDS011;67216;50.930;4.514;2023-02-11T03:19:48;25.73;;;9.65;;
55987;SDS011;67216;50.930;4.514;2023-02-11T03:22:17;26.00;;;10.18;;
55987;SDS011;67216;50.930;4.514;2023-02-11T03:24:47;23.40;;;10.48;;
55987;SDS011;67216;50.930;4.514;2023-02-11T03:27:19;29.25;;;10.63;;
55987;SDS011;67216;50.930;4.514;2023-02-11T03:30:39;24.92;;;10.63;;
55987;SDS011;67216;50.930;4.514;2023-02-11T03:32:52;27.05;;;10.15;;
55987;SDS011;67216;50.930;4.514;2023-02-11T03:35:23;23.95;;;11.30;;
55987;SDS011;67216;50.930;4.514;2023-02-11T03:38:10;34.03;;;11.20;;
55987;SDS011;67216;50.930;4.514;2023-02-11T03:40:42;29.20;;;10.32;;
55987;SDS011;67216;50.930;4.514;2023-02-11T03:43:11;26.98;;;11.23;;
55987;SDS011;67216;50.930;4.514;2023-02-11T03:45:51;25.40;;;11.55;;
55987;SDS011;67216;50.930;4.514;2023-02-11T03:48:23;28.52;;;11.38;;
55987;SDS011;67216;50.930;4.514;2023-02-11T03:50:52;24.77;;;10.82;;
55987;SDS011;67216;50.930;4.514;2023-02-11T03:53:19;20.95;;;10.73;;
55987;SDS011;67216;50.930;4.514;2023-02-11T03:55:48;29.05;;;11.63;;
55987;SDS011;67216;50.930;4.514;2023-02-11T03:58:15;22.67;;;11.20;;
55987;SDS011;67216;50.930;4.514;2023-02-11T04:00:42;24.33;;;11.45;;
55987;SDS011;67216;50.930;4.514;2023-02-11T04:03:09;27.65;;;11.70;;
55987;SDS011;67216;50.930;4.514;2023-02-11T04:05:38;27.70;;;12.57;;
55987;SDS011;67216;50.930;4.514;2023-02-11T04:08:03;32.65;;;13.18;;
55987;SDS011;67216;50.930;4.514;2023-02-11T04:10:30;24.48;;;12.18;;
55987;SDS011;67216;50.930;4.514;2023-02-11T04:12:58;22.40;;;11.87;;
55987;SDS011;67216;50.930;4.514;2023-02-11T04:15:24;23.48;;;12.38;;
55987;SDS011;67216;50.930;4.514;2023-02-11T04:17:50;28.40;;;13.20;;
55987;SDS011;67216;50.930;4.514;2023-02-11T04:20:17;23.90;;;13.40;;
55987;SDS011;67216;50.930;4.514;2023-02-11T04:22:42;25.55;;;12.63;;
55987;SDS011;67216;50.930;4.514;2023-02-11T04:25:09;29.27;;;14.43;;
55987;SDS011;67216;50.930;4.514;2023-02-11T04:27:37;28.48;;;12.52;;
55987;SDS011;67216;50.930;4.514;2023-02-11T04:30:03;31.20;;;14.02;;
55987;SDS011;67216;50.930;4.514;2023-02-11T04:32:30;35.65;;;14.00;;
55987;SDS011;67216;50.930;4.514;2023-02-11T04:34:56;31.17;;;14.48;;
55987;SDS011;67216;50.930;4.514;2023-02-11T04:37:22;35.17;;;14.70;;
55987;SDS011;67216;50.930;4.514;2023-02-11T04:39:47;32.55;;;15.38;;
55987;SDS011;67216;50.930;4.514;2023-02-11T04:42:13;31.17;;;14.50;;
55987;SDS011;67216;50.930;4.514;2023-02-11T04:44:41;38.08;;;14.88;;
55987;SDS011;67216;50.930;4.514;2023-02-11T04:47:09;26.30;;;14.77;;
55987;SDS011;67216;50.930;4.514;2023-02-11T04:49:36;25.55;;;13.55;;
55987;SDS011;67216;50.930;4.514;2023-02-11T04:52:02;26.13;;;14.93;;
55987;SDS011;67216;50.930;4.514;2023-02-11T04:54:28;27.38;;;14.27;;
55987;SDS011;67216;50.930;4.514;2023-02-11T04:56:56;29.63;;;15.40;;
55987;SDS011;67216;50.930;4.514;2023-02-11T04:59:21;32.75;;;15.02;;
55987;SDS011;67216;50.930;4.514;2023-02-11T05:01:48;33.72;;;15.65;;
55987;SDS011;67216;50.930;4.514;2023-02-11T05:04:14;33.70;;;14.52;;
55987;SDS011;67216;50.930;4.514;2023-02-11T05:06:40;34.35;;;15.65;;
55987;SDS011;67216;50.930;4.514;2023-02-11T05:09:06;37.70;;;16.83;;
55987;SDS011;67216;50.930;4.514;2023-02-11T05:11:32;33.08;;;15.90;;
55987;SDS011;67216;50.930;4.514;2023-02-11T05:14:01;40.97;;;17.42;;
55987;SDS011;67216;50.930;4.514;2023-02-11T05:16:27;32.08;;;16.60;;
55987;SDS011;67216;50.930;4.514;2023-02-11T05:18:53;38.03;;;18.52;;
55987;SDS011;67216;50.930;4.514;2023-02-11T05:21:19;38.30;;;18.58;;
55987;SDS011;67216;50.930;4.514;2023-02-11T05:23:46;41.17;;;19.08;;
55987;SDS011;67216;50.930;4.514;2023-02-11T05:26:12;35.13;;;17.17;;
55987;SDS011;67216;50.930;4.514;2023-02-11T05:28:41;33.28;;;17.63;;
55987;SDS011;67216;50.930;4.514;2023-02-11T05:31:10;37.83;;;17.77;;
55987;SDS011;67216;50.930;4.514;2023-02-11T05:33:38;39.50;;;18.60;;
55987;SDS011;67216;50.930;4.514;2023-02-11T05:36:09;38.35;;;19.30;;
55987;SDS011;67216;50.930;4.514;2023-02-11T05:38:36;44.28;;;20.83;;
55987;SDS011;67216;50.930;4.514;2023-02-11T05:41:03;34.47;;;19.83;;
55987;SDS011;67216;50.930;4.514;2023-02-11T05:43:29;40.70;;;20.70;;
55987;SDS011;67216;50.930;4.514;2023-02-11T05:45:55;33.75;;;20.05;;
55987;SDS011;67216;50.930;4.514;2023-02-11T05:48:23;37.17;;;19.98;;
55987;SDS011;67216;50.930;4.514;2023-02-11T05:50:48;32.58;;;19.10;;
55987;SDS011;67216;50.930;4.514;2023-02-11T05:53:14;35.58;;;19.77;;
55987;SDS011;67216;50.930;4.514;2023-02-11T05:55:40;41.42;;;20.80;;
55987;SDS011;67216;50.930;4.514;2023-02-11T05:58:05;43.90;;;20.50;;
55987;SDS011;67216;50.930;4.514;2023-02-11T06:00:36;39.50;;;20.98;;
55987;SDS011;67216;50.930;4.514;2023-02-11T06:03:02;39.85;;;20.98;;
55987;SDS011;67216;50.930;4.514;2023-02-11T06:05:31;42.83;;;21.05;;
55987;SDS011;67216;50.930;4.514;2023-02-11T06:07:57;41.92;;;20.75;;
55987;SDS011;67216;50.930;4.514;2023-02-11T06:10:23;34.30;;;20.35;;
55987;SDS011;67216;50.930;4.514;2023-02-11T06:12:51;37.55;;;20.30;;
55987;SDS011;67216;50.930;4.514;2023-02-11T06:15:17;40.63;;;20.73;;
55987;SDS011;67216;50.930;4.514;2023-02-11T06:17:42;31.80;;;19.55;;
55987;SDS011;67216;50.930;4.514;2023-02-11T06:20:10;41.22;;;21.70;;
55987;SDS011;67216;50.930;4.514;2023-02-11T06:22:36;39.47;;;20.90;;
55987;SDS011;67216;50.930;4.514;2023-02-11T06:25:02;41.95;;;21.10;;
55987;SDS011;67216;50.930;4.514;2023-02-11T06:27:33;41.75;;;21.05;;
55987;SDS011;67216;50.930;4.514;2023-02-11T06:29:59;41.75;;;21.40;;
55987;SDS011;67216;50.930;4.514;2023-02-11T06:32:27;38.22;;;22.48;;
55987;SDS011;67216;50.930;4.514;2023-02-11T06:34:53;28.20;;;15.90;;
55987;SDS011;67216;50.930;4.514;2023-02-11T06:37:19;39.75;;;21.98;;
55987;SDS011;67216;50.930;4.514;2023-02-11T06:39:45;42.80;;;23.55;;
55987;SDS011;67216;50.930;4.514;2023-02-11T06:42:11;47.25;;;23.40;;
55987;SDS011;67216;50.930;4.514;2023-02-11T06:44:36;47.80;;;25.15;;
55987;SDS011;67216;50.930;4.514;2023-02-11T06:47:02;38.25;;;23.63;;
55987;SDS011;67216;50.930;4.514;2023-02-11T06:49:28;40.00;;;23.85;;
55987;SDS011;67216;50.930;4.514;2023-02-11T06:51:57;43.97;;;24.27;;
55987;SDS011;67216;50.930;4.514;2023-02-11T06:54:25;48.80;;;25.17;;
55987;SDS011;67216;50.930;4.514;2023-02-11T06:56:51;46.27;;;25.30;;
55987;SDS011;67216;50.930;4.514;2023-02-11T06:59:18;47.25;;;25.63;;
55987;SDS011;67216;50.930;4.514;2023-02-11T07:01:46;44.28;;;25.42;;
55987;SDS011;67216;50.930;4.514;2023-02-11T07:04:12;49.42;;;25.10;;
55987;SDS011;67216;50.930;4.514;2023-02-11T07:06:42;50.65;;;25.48;;
55987;SDS011;67216;50.930;4.514;2023-02-11T07:09:08;47.05;;;25.70;;
55987;SDS011;67216;50.930;4.514;2023-02-11T07:11:34;48.63;;;26.98;;
55987;SDS011;67216;50.930;4.514;2023-02-11T07:14:04;49.05;;;26.45;;
55987;SDS011;67216;50.930;4.514;2023-02-11T07:16:35;50.95;;;26.70;;
55987;SDS011;67216;50.930;4.514;2023-02-11T07:19:02;56.28;;;27.90;;
55987;SDS011;67216;50.930;4.514;2023-02-11T07:21:31;53.73;;;27.70;;
55987;SDS011;67216;50.930;4.514;2023-02-11T07:23:57;49.83;;;28.42;;
55987;SDS011;67216;50.930;4.514;2023-02-11T07:26:24;54.20;;;28.67;;
55987;SDS011;67216;50.930;4.514;2023-02-11T07:28:51;51.78;;;28.83;;
55987;SDS011;67216;50.930;4.514;2023-02-11T07:31:24;54.40;;;29.75;;
55987;SDS011;67216;50.930;4.514;2023-02-11T07:33:54;55.65;;;30.58;;
55987;SDS011;67216;50.930;4.514;2023-02-11T07:36:22;56.85;;;30.13;;
55987;SDS011;67216;50.930;4.514;2023-02-11T07:38:48;58.67;;;30.95;;
55987;SDS011;67216;50.930;4.514;2023-02-11T07:41:15;62.67;;;32.33;;
55987;SDS011;67216;50.930;4.514;2023-02-11T07:43:43;57.88;;;31.35;;
55987;SDS011;67216;50.930;4.514;2023-02-11T07:46:10;52.58;;;30.08;;
55987;SDS011;67216;50.930;4.514;2023-02-11T07:48:40;55.67;;;31.27;;
55987;SDS011;67216;50.930;4.514;2023-02-11T07:51:08;52.15;;;30.67;;
55987;SDS011;67216;50.930;4.514;2023-02-11T07:53:35;62.95;;;32.25;;
55987;SDS011;67216;50.930;4.514;2023-02-11T07:56:02;54.00;;;30.20;;
55987;SDS011;67216;50.930;4.514;2023-02-11T07:58:29;54.17;;;31.73;;
55987;SDS011;67216;50.930;4.514;2023-02-11T08:01:03;52.28;;;29.70;;
55987;SDS011;67216;50.930;4.514;2023-02-11T08:03:33;58.63;;;32.88;;
55987;SDS011;67216;50.930;4.514;2023-02-11T08:06:06;60.55;;;30.17;;
55987;SDS011;67216;50.930;4.514;2023-02-11T08:08:37;58.50;;;29.98;;
55987;SDS011;67216;50.930;4.514;2023-02-11T08:11:10;58.90;;;31.95;;
55987;SDS011;67216;50.930;4.514;2023-02-11T08:13:37;53.63;;;29.80;;
55987;SDS011;67216;50.930;4.514;2023-02-11T08:16:04;53.35;;;29.20;;
55987;SDS011;67216;50.930;4.514;2023-02-11T08:21:03;53.88;;;29.83;;
55987;SDS011;67216;50.930;4.514;2023-02-11T08:23:30;51.92;;;29.02;;
55987;SDS011;67216;50.930;4.514;2023-02-11T08:25:59;53.72;;;30.48;;
55987;SDS011;67216;50.930;4.514;2023-02-11T08:28:34;64.00;;;31.23;;
55987;SDS011;67216;50.930;4.514;2023-02-11T08:31:07;56.55;;;31.60;;
55987;SDS011;67216;50.930;4.514;2023-02-11T08:33:37;57.08;;;30.80;;
55987;SDS011;67216;50.930;4.514;2023-02-11T08:36:11;51.15;;;29.25;;
55987;SDS011;67216;50.930;4.514;2023-02-11T08:38:41;56.72;;;30.55;;
55987;SDS011;67216;50.930;4.514;2023-02-11T08:41:08;57.25;;;30.67;;
55987;SDS011;67216;50.930;4.514;2023-02-11T08:43:35;52.35;;;31.48;;
55987;SDS011;67216;50.930;4.514;2023-02-11T08:46:02;56.40;;;31.23;;
55987;SDS011;67216;50.930;4.514;2023-02-11T08:48:28;53.97;;;30.25;;
55987;SDS011;67216;50.930;4.514;2023-02-11T08:50:54;59.95;;;31.83;;
55987;SDS011;67216;50.930;4.514;2023-02-11T08:53:24;51.80;;;30.73;;
55987;SDS011;67216;50.930;4.514;2023-02-11T08:55:52;59.63;;;30.27;;
55987;SDS011;67216;50.930;4.514;2023-02-11T08:58:21;65.53;;;33.25;;
55987;SDS011;67216;50.930;4.514;2023-02-11T09:00:47;63.47;;;33.03;;
55987;SDS011;67216;50.930;4.514;2023-02-11T09:03:16;66.95;;;31.60;;
55987;SDS011;67216;50.930;4.514;2023-02-11T09:05:45;59.35;;;32.95;;
55987;SDS011;67216;50.930;4.514;2023-02-11T09:08:13;63.67;;;32.40;;
55987;SDS011;67216;50.930;4.514;2023-02-11T09:10:44;62.77;;;33.13;;
55987;SDS011;67216;50.930;4.514;2023-02-11T09:13:10;61.72;;;33.30;;
55987;SDS011;67216;50.930;4.514;2023-02-11T09:15:36;65.72;;;33.65;;
55987;SDS011;67216;50.930;4.514;2023-02-11T09:18:02;67.47;;;32.72;;
55987;SDS011;67216;50.930;4.514;2023-02-11T09:20:28;62.13;;;33.10;;
55987;SDS011;67216;50.930;4.514;2023-02-11T09:22:55;71.05;;;35.38;;
55987;SDS011;67216;50.930;4.514;2023-02-11T09:25:22;67.53;;;35.03;;
55987;SDS011;67216;50.930;4.514;2023-02-11T09:27:49;62.90;;;33.92;;
55987;SDS011;67216;50.930;4.514;2023-02-11T09:30:18;64.88;;;35.85;;
55987;SDS011;67216;50.930;4.514;2023-02-11T09:32:44;63.65;;;35.25;;
55987;SDS011;67216;50.930;4.514;2023-02-11T09:35:10;76.28;;;36.63;;
55987;SDS011;67216;50.930;4.514;2023-02-11T09:37:39;73.25;;;35.72;;
55987;SDS011;67216;50.930;4.514;2023-02-11T09:40:07;73.15;;;36.30;;
55987;SDS011;67216;50.930;4.514;2023-02-11T09:45:26;74.70;;;36.50;;
55987;SDS011;67216;50.930;4.514;2023-02-11T09:47:54;70.60;;;36.78;;
55987;SDS011;67216;50.930;4.514;2023-02-11T09:53:10;75.70;;;36.65;;
55987;SDS011;67216;50.930;4.514;2023-02-11T09:55:54;75.50;;;37.30;;
55987;SDS011;67216;50.930;4.514;2023-02-11T09:58:28;83.03;;;38.70;;
55987;SDS011;67216;50.930;4.514;2023-02-11T10:04:40;74.40;;;38.22;;
55987;SDS011;67216;50.930;4.514;2023-02-11T10:23:41;76.93;;;39.35;;
55987;SDS011;67216;50.930;4.514;2023-02-11T10:26:16;70.60;;;38.85;;
55987;SDS011;67216;50.930;4.514;2023-02-11T10:28:47;67.45;;;38.13;;
55987;SDS011;67216;50.930;4.514;2023-02-11T10:31:19;80.70;;;39.45;;
55987;SDS011;67216;50.930;4.514;2023-02-11T10:36:26;70.70;;;38.25;;
55987;SDS011;67216;50.930;4.514;2023-02-11T10:39:17;76.30;;;40.55;;
55987;SDS011;67216;50.930;4.514;2023-02-11T10:41:52;78.38;;;39.42;;
55987;SDS011;67216;50.930;4.514;2023-02-11T10:44:32;81.55;;;39.95;;
55987;SDS011;67216;50.930;4.514;2023-02-11T10:47:04;69.90;;;37.42;;
55987;SDS011;67216;50.930;4.514;2023-02-11T10:49:39;77.47;;;39.80;;
55987;SDS011;67216;50.930;4.514;2023-02-11T10:52:24;76.13;;;39.90;;
55987;SDS011;67216;50.930;4.514;2023-02-11T10:54:55;72.10;;;39.38;;
55987;SDS011;67216;50.930;4.514;2023-02-11T10:57:21;78.45;;;38.72;;
55987;SDS011;67216;50.930;4.514;2023-02-11T11:00:03;75.47;;;39.17;;
55987;SDS011;67216;50.930;4.514;2023-02-11T11:03:06;75.68;;;38.65;;
55987;SDS011;67216;50.930;4.514;2023-02-11T11:05:48;75.60;;;38.03;;
55987;SDS011;67216;50.930;4.514;2023-02-11T11:08:39;71.50;;;38.20;;
55987;SDS011;67216;50.930;4.514;2023-02-11T11:11:07;75.03;;;37.63;;
55987;SDS011;67216;50.930;4.514;2023-02-11T11:13:55;73.40;;;37.13;;
55987;SDS011;67216;50.930;4.514;2023-02-11T11:16:29;73.30;;;38.67;;
55987;SDS011;67216;50.930;4.514;2023-02-11T11:21:40;72.72;;;37.40;;
55987;SDS011;67216;50.930;4.514;2023-02-11T11:26:52;63.20;;;36.28;;
55987;SDS011;67216;50.930;4.514;2023-02-11T11:29:25;76.03;;;37.58;;
55987;SDS011;67216;50.930;4.514;2023-02-11T11:31:58;61.67;;;34.92;;
55987;SDS011;67216;50.930;4.514;2023-02-11T11:34:33;66.72;;;37.08;;
55987;SDS011;67216;50.930;4.514;2023-02-11T11:42:40;74.63;;;36.53;;
55987;SDS011;67216;50.930;4.514;2023-02-11T11:47:47;61.10;;;36.15;;
55987;SDS011;67216;50.930;4.514;2023-02-11T11:53:24;69.97;;;37.05;;
55987;SDS011;67216;50.930;4.514;2023-02-11T11:58:28;63.42;;;34.28;;
55987;SDS011;67216;50.930;4.514;2023-02-11T12:01:09;62.28;;;34.78;;
55987;SDS011;67216;50.930;4.514;2023-02-11T12:06:43;70.47;;;36.08;;
55987;SDS011;67216;50.930;4.514;2023-02-11T12:15:22;73.13;;;38.30;;
55987;SDS011;67216;50.930;4.514;2023-02-11T12:18:07;65.95;;;36.55;;
55987;SDS011;67216;50.930;4.514;2023-02-11T12:21:07;68.40;;;37.75;;
55987;SDS011;67216;50.930;4.514;2023-02-11T12:24:02;68.93;;;37.70;;
55987;SDS011;67216;50.930;4.514;2023-02-11T12:29:58;68.30;;;38.20;;
55987;SDS011;67216;50.930;4.514;2023-02-11T12:32:52;72.40;;;38.03;;
55987;SDS011;67216;50.930;4.514;2023-02-11T12:51:48;73.28;;;38.95;;
55987;SDS011;67216;50.930;4.514;2023-02-11T13:02:40;75.38;;;37.80;;
55987;SDS011;67216;50.930;4.514;2023-02-11T13:05:26;71.43;;;38.17;;
55987;SDS011;67216;50.930;4.514;2023-02-11T13:10:45;71.32;;;38.13;;
55987;SDS011;67216;50.930;4.514;2023-02-11T13:13:21;78.22;;;39.38;;
55987;SDS011;67216;50.930;4.514;2023-02-11T13:15:57;74.03;;;37.92;;
55987;SDS011;67216;50.930;4.514;2023-02-11T13:18:48;69.25;;;38.35;;
55987;SDS011;67216;50.930;4.514;2023-02-11T13:21:37;67.03;;;36.88;;
55987;SDS011;67216;50.930;4.514;2023-02-11T13:24:25;66.63;;;37.85;;
55987;SDS011;67216;50.930;4.514;2023-02-11T13:32:22;69.82;;;39.00;;
55987;SDS011;67216;50.930;4.514;2023-02-11T13:37:34;68.93;;;40.75;;
55987;SDS011;67216;50.930;4.514;2023-02-11T13:40:18;71.07;;;40.22;;
55987;SDS011;67216;50.930;4.514;2023-02-11T13:48:44;73.40;;;41.42;;
55987;SDS011;67216;50.930;4.514;2023-02-11T13:51:07;69.75;;;39.60;;
55987;SDS011;67216;50.930;4.514;2023-02-11T13:53:50;66.47;;;39.75;;
55987;SDS011;67216;50.930;4.514;2023-02-11T13:56:27;68.53;;;39.03;;
55987;SDS011;67216;50.930;4.514;2023-02-11T13:59:05;67.05;;;39.00;;
55987;SDS011;67216;50.930;4.514;2023-02-11T14:04:36;66.80;;;39.42;;
55987;SDS011;67216;50.930;4.514;2023-02-11T14:10:54;75.35;;;41.03;;
55987;SDS011;67216;50.930;4.514;2023-02-11T14:13:34;70.07;;;40.85;;
55987;SDS011;67216;50.930;4.514;2023-02-11T14:19:15;72.90;;;41.17;;
55987;SDS011;67216;50.930;4.514;2023-02-11T14:30:01;70.95;;;39.30;;
55987;SDS011;67216;50.930;4.514;2023-02-11T14:41:23;66.18;;;40.13;;
55987;SDS011;67216;50.930;4.514;2023-02-11T14:43:54;70.50;;;39.97;;
55987;SDS011;67216;50.930;4.514;2023-02-11T14:46:24;75.32;;;42.28;;
55987;SDS011;67216;50.930;4.514;2023-02-11T14:49:00;74.30;;;40.67;;
55987;SDS011;67216;50.930;4.514;2023-02-11T14:51:38;70.60;;;41.35;;
55987;SDS011;67216;50.930;4.514;2023-02-11T14:54:09;66.75;;;41.42;;
55987;SDS011;67216;50.930;4.514;2023-02-11T14:56:41;71.35;;;41.17;;
55987;SDS011;67216;50.930;4.514;2023-02-11T14:59:21;71.22;;;40.85;;
55987;SDS011;67216;50.930;4.514;2023-02-11T15:01:50;73.85;;;40.65;;
55987;SDS011;67216;50.930;4.514;2023-02-11T15:04:29;70.20;;;41.92;;
55987;SDS011;67216;50.930;4.514;2023-02-11T15:07:04;73.53;;;41.92;;
55987;SDS011;67216;50.930;4.514;2023-02-11T15:09:33;67.10;;;40.55;;
55987;SDS011;67216;50.930;4.514;2023-02-11T15:12:08;71.78;;;41.08;;
55987;SDS011;67216;50.930;4.514;2023-02-11T15:14:52;75.53;;;40.95;;
55987;SDS011;67216;50.930;4.514;2023-02-11T15:17:25;71.05;;;43.67;;
55987;SDS011;67216;50.930;4.514;2023-02-11T15:19:58;75.05;;;43.38;;
55987;SDS011;67216;50.930;4.514;2023-02-11T15:22:29;69.78;;;41.63;;
55987;SDS011;67216;50.930;4.514;2023-02-11T15:25:02;64.13;;;41.42;;
55987;SDS011;67216;50.930;4.514;2023-02-11T15:28:09;75.35;;;41.53;;
55987;SDS011;67216;50.930;4.514;2023-02-11T15:30:24;75.00;;;41.50;;
55987;SDS011;67216;50.930;4.514;2023-02-11T15:32:55;70.85;;;42.65;;
55987;SDS011;67216;50.930;4.514;2023-02-11T15:35:31;69.70;;;41.95;;
55987;SDS011;67216;50.930;4.514;2023-02-11T15:38:00;69.38;;;41.88;;
55987;SDS011;67216;50.930;4.514;2023-02-11T15:40:27;69.07;;;41.45;;
55987;SDS011;67216;50.930;4.514;2023-02-11T15:43:01;70.47;;;42.35;;
55987;SDS011;67216;50.930;4.514;2023-02-11T15:48:21;70.32;;;40.95;;
55987;SDS011;67216;50.930;4.514;2023-02-11T15:51:20;77.38;;;43.55;;
55987;SDS011;67216;50.930;4.514;2023-02-11T15:53:50;73.22;;;42.58;;
55987;SDS011;67216;50.930;4.514;2023-02-11T15:58:52;73.53;;;44.25;;
55987;SDS011;67216;50.930;4.514;2023-02-11T16:01:27;70.65;;;44.65;;
55987;SDS011;67216;50.930;4.514;2023-02-11T16:03:57;76.80;;;44.65;;
55987;SDS011;67216;50.930;4.514;2023-02-11T16:06:34;75.30;;;47.38;;
55987;SDS011;67216;50.930;4.514;2023-02-11T16:09:25;73.13;;;44.88;;
55987;SDS011;67216;50.930;4.514;2023-02-11T16:12:00;71.25;;;43.70;;
55987;SDS011;67216;50.930;4.514;2023-02-11T16:14:47;76.13;;;46.40;;
55987;SDS011;67216;50.930;4.514;2023-02-11T16:19:48;70.00;;;43.00;;
55987;SDS011;67216;50.930;4.514;2023-02-11T16:22:18;72.47;;;44.07;;
55987;SDS011;67216;50.930;4.514;2023-02-11T16:24:49;64.32;;;42.67;;
55987;SDS011;67216;50.930;4.514;2023-02-11T16:29:48;67.47;;;43.70;;
55987;SDS011;67216;50.930;4.514;2023-02-11T16:32:19;70.75;;;44.08;;
55987;SDS011;67216;50.930;4.514;2023-02-11T16:34:46;64.68;;;42.25;;
55987;SDS011;67216;50.930;4.514;2023-02-11T16:37:12;65.88;;;43.53;;
55987;SDS011;67216;50.930;4.514;2023-02-11T16:39:38;72.20;;;46.05;;
55987;SDS011;67216;50.930;4.514;2023-02-11T16:42:04;66.60;;;43.50;;
55987;SDS011;67216;50.930;4.514;2023-02-11T16:44:38;74.50;;;45.17;;
55987;SDS011;67216;50.930;4.514;2023-02-11T16:47:11;67.63;;;42.78;;
55987;SDS011;67216;50.930;4.514;2023-02-11T16:49:49;67.05;;;42.38;;
55987;SDS011;67216;50.930;4.514;2023-02-11T16:52:17;78.25;;;45.22;;
55987;SDS011;67216;50.930;4.514;2023-02-11T16:54:44;73.80;;;46.30;;
55987;SDS011;67216;50.930;4.514;2023-02-11T16:57:15;74.03;;;45.55;;
55987;SDS011;67216;50.930;4.514;2023-02-11T16:59:48;70.65;;;45.25;;
55987;SDS011;67216;50.930;4.514;2023-02-11T17:02:24;70.72;;;45.03;;
55987;SDS011;67216;50.930;4.514;2023-02-11T17:04:52;63.50;;;42.88;;
55987;SDS011;67216;50.930;4.514;2023-02-11T17:07:19;68.60;;;43.65;;
55987;SDS011;67216;50.930;4.514;2023-02-11T17:09:45;72.00;;;44.67;;
55987;SDS011;67216;50.930;4.514;2023-02-11T17:12:11;66.57;;;44.42;;
55987;SDS011;67216;50.930;4.514;2023-02-11T17:14:36;71.03;;;46.38;;
55987;SDS011;67216;50.930;4.514;2023-02-11T17:17:04;69.55;;;45.28;;
55987;SDS011;67216;50.930;4.514;2023-02-11T17:19:30;67.85;;;43.97;;
55987;SDS011;67216;50.930;4.514;2023-02-11T17:21:58;71.85;;;45.03;;
55987;SDS011;67216;50.930;4.514;2023-02-11T17:24:24;76.65;;;47.15;;
55987;SDS011;67216;50.930;4.514;2023-02-11T17:26:50;73.32;;;46.28;;
55987;SDS011;67216;50.930;4.514;2023-02-11T17:29:17;73.50;;;46.85;;
55987;SDS011;67216;50.930;4.514;2023-02-11T17:31:46;74.28;;;46.83;;
55987;SDS011;67216;50.930;4.514;2023-02-11T17:34:18;76.40;;;46.58;;
55987;SDS011;67216;50.930;4.514;2023-02-11T17:36:46;73.82;;;47.55;;